Time;durP1;ratioP1;P1;durP2;ratioP2;P2;SDS_P1;SDS_P2;PMS_P1;PMS_P2;Temp;Humidity;BMP_temperature;BMP_pressure;BME280_temperature;BME280_humidity;BME280_pressure;Samples;Min_cycle;Max_cycle;Signal;HPM_P1;HPM_P2
2021/09/07 00:00:29;;;;;;;12.60;10.30;;;;;;;21.74;53.32;102539.78;4930379;28;20031;-77
2021/09/07 00:02:54;;;;;;;11.98;10.27;;;;;;;21.74;53.58;102542.41;4948721;28;20030;-77
2021/09/07 00:05:20;;;;;;;11.68;10.10;;;;;;;21.75;53.28;102532.78;4950062;28;20098;-77
2021/09/07 00:07:45;;;;;;;10.65;9.55;;;;;;;21.74;53.19;102528.44;4945368;29;20532;-77
2021/09/07 00:10:12;;;;;;;11.10;9.63;;;;;;;21.75;53.30;102527.53;4919986;29;20035;-77
2021/09/07 00:12:38;;;;;;;14.13;10.38;;;;;;;21.75;53.55;102535.41;4944550;28;20109;-76
2021/09/07 00:15:08;;;;;;;12.02;10.02;;;;;;;21.74;53.40;102531.06;4948522;28;20485;-77
2021/09/07 00:17:33;;;;;;;10.77;9.57;;;;;;;21.74;53.46;102536.28;4963567;28;20027;-77
2021/09/07 00:19:59;;;;;;;11.35;9.75;;;;;;;21.73;53.35;102529.28;4945455;28;20046;-77
2021/09/07 00:22:24;;;;;;;13.00;10.18;;;;;;;21.74;53.44;102525.81;4955228;28;20034;-77
2021/09/07 00:24:50;;;;;;;10.70;9.57;;;;;;;21.72;53.19;102525.81;4947946;28;20502;-78
2021/09/07 00:27:15;;;;;;;11.77;9.80;;;;;;;21.72;52.92;102523.19;4943274;28;20128;-78
2021/09/07 00:29:41;;;;;;;13.38;10.48;;;;;;;21.72;53.08;102515.31;4943415;29;20035;-77
2021/09/07 00:32:06;;;;;;;12.25;9.40;;;;;;;21.73;53.08;102518.81;4926315;29;20378;-77
2021/09/07 00:34:34;;;;;;;12.13;9.45;;;;;;;21.72;53.38;102517.94;4942808;29;20023;-77
2021/09/07 00:37:00;;;;;;;11.18;10.02;;;;;;;21.72;53.20;102522.31;4927296;29;20126;-77
2021/09/07 00:39:25;;;;;;;11.60;9.88;;;;;;;21.72;53.36;102512.72;4942392;29;20087;-77
2021/09/07 00:41:51;;;;;;;10.10;8.98;;;;;;;21.72;53.36;102512.72;4911341;29;20122;-80
2021/09/07 00:44:18;;;;;;;11.10;9.88;;;;;;;21.72;53.40;102501.34;4926781;29;20035;-77
2021/09/07 00:46:48;;;;;;;12.05;9.35;;;;;;;21.71;52.81;102508.34;4959837;29;20508;-77
2021/09/07 00:49:14;;;;;;;11.05;9.52;;;;;;;21.71;53.11;102502.22;4954218;28;20023;-77
2021/09/07 00:51:41;;;;;;;12.63;9.60;;;;;;;21.71;53.26;102502.22;4943226;29;20090;-77
2021/09/07 00:54:07;;;;;;;10.65;9.55;;;;;;;21.70;53.12;102496.09;4949720;29;20027;-77
2021/09/07 00:56:34;;;;;;;12.63;10.05;;;;;;;21.70;53.23;102495.25;4926152;29;20125;-77
2021/09/07 00:59:02;;;;;;;10.63;9.52;;;;;;;21.70;53.16;102495.25;4946488;28;20070;-77
2021/09/07 01:01:27;;;;;;;11.93;10.05;;;;;;;21.70;53.29;102497.88;4941848;29;20038;-77
2021/09/07 01:03:53;;;;;;;13.60;9.32;;;;;;;21.70;53.44;102492.63;4942324;29;20023;-77
2021/09/07 01:06:18;;;;;;;10.00;9.00;;;;;;;21.69;53.37;102485.66;4942319;29;20059;-78
2021/09/07 01:08:44;;;;;;;11.25;9.20;;;;;;;21.70;53.17;102490.00;4928489;28;20394;-78
2021/09/07 01:11:09;;;;;;;10.32;9.23;;;;;;;21.69;53.06;102497.00;4945928;28;20051;-77
2021/09/07 01:13:34;;;;;;;11.50;9.35;;;;;;;21.69;53.30;102497.00;4945902;28;20026;-77
2021/09/07 01:16:01;;;;;;;10.65;9.40;;;;;;;21.68;53.16;102487.38;4925853;29;20023;-77
2021/09/07 01:18:26;;;;;;;12.57;9.48;;;;;;;21.69;53.14;102504.00;4942299;29;20062;-77
2021/09/07 01:20:52;;;;;;;11.63;9.38;;;;;;;21.67;53.14;102498.75;4957130;29;20031;-77
2021/09/07 01:23:17;;;;;;;10.45;9.35;;;;;;;21.68;53.16;102491.75;4961022;28;20392;-78
2021/09/07 01:25:42;;;;;;;11.98;9.57;;;;;;;21.67;53.16;102496.13;4958939;28;20038;-77
2021/09/07 01:28:12;;;;;;;12.65;9.88;;;;;;;21.66;53.11;102491.75;4910363;28;20031;-77
2021/09/07 01:30:38;;;;;;;12.60;10.20;;;;;;;21.66;53.25;102493.50;4945062;28;20081;-77
2021/09/07 01:33:03;;;;;;;10.90;9.80;;;;;;;21.67;53.31;102490.03;4943434;28;20066;-78
2021/09/07 01:35:29;;;;;;;10.52;9.43;;;;;;;21.66;53.11;102494.34;4924477;29;20058;-78
2021/09/07 01:37:54;;;;;;;12.38;10.63;;;;;;;21.65;53.34;102482.16;4914401;29;20071;-77
2021/09/07 01:40:19;;;;;;;12.23;10.25;;;;;;;21.66;53.18;102490.88;4910204;29;20051;-77
2021/09/07 01:42:45;;;;;;;11.32;9.95;;;;;;;21.66;53.38;102490.88;4941128;29;20494;-77
2021/09/07 01:45:11;;;;;;;12.57;10.48;;;;;;;21.64;52.91;102477.78;4925326;29;20027;-77
2021/09/07 01:47:41;;;;;;;12.10;9.70;;;;;;;21.64;53.12;102477.78;4964757;28;20027;-77
2021/09/07 01:50:08;;;;;;;13.75;10.55;;;;;;;21.65;53.33;102483.91;4977151;28;20374;-77
2021/09/07 01:52:33;;;;;;;10.85;9.70;;;;;;;21.65;53.05;102483.91;4941070;29;20498;-78
2021/09/07 01:54:59;;;;;;;13.35;10.40;;;;;;;21.64;53.38;102483.00;4925029;29;20046;-77
2021/09/07 01:57:24;;;;;;;13.48;10.43;;;;;;;21.64;53.22;102484.75;4925157;29;20031;-77
2021/09/07 01:59:49;;;;;;;11.10;9.63;;;;;;;21.64;53.49;102485.63;4920535;28;20126;-77
2021/09/07 02:02:15;;;;;;;11.00;9.90;;;;;;;21.64;53.46;102488.25;4944261;28;20027;-77
2021/09/07 02:04:40;;;;;;;10.77;9.63;;;;;;;21.65;53.40;102483.91;4940784;29;20035;-77
2021/09/07 02:07:06;;;;;;;10.75;9.63;;;;;;;21.64;53.47;102496.09;4925841;29;20023;-77
2021/09/07 02:09:31;;;;;;;11.65;9.60;;;;;;;21.64;53.47;102490.00;4931808;28;20069;-77
2021/09/07 02:11:57;;;;;;;11.88;10.35;;;;;;;21.64;53.32;102484.75;4929583;28;20134;-77
2021/09/07 02:14:22;;;;;;;11.55;9.90;;;;;;;21.63;53.19;102485.66;4959366;28;20034;-77
2021/09/07 02:16:48;;;;;;;11.45;9.50;;;;;;;21.64;53.46;102490.00;4977293;28;20168;-78
2021/09/07 02:19:13;;;;;;;10.93;9.80;;;;;;;21.63;53.43;102491.75;4941987;28;20031;-77
2021/09/07 02:21:38;;;;;;;11.50;10.13;;;;;;;21.64;53.54;102490.00;4943134;28;20026;-78
2021/09/07 02:24:04;;;;;;;11.52;10.27;;;;;;;21.62;53.45;102491.75;4949106;28;20015;-82
2021/09/07 02:26:29;;;;;;;11.68;10.00;;;;;;;21.64;53.38;102492.63;4963692;28;20023;-82
2021/09/07 02:28:55;;;;;;;11.77;9.85;;;;;;;21.62;53.33;102492.63;4980194;28;20055;-82
2021/09/07 02:31:26;;;;;;;10.70;9.43;;;;;;;21.62;53.64;102497.84;4946541;28;20022;-82
2021/09/07 02:33:52;;;;;;;11.93;10.13;;;;;;;21.62;53.44;102491.75;4960985;29;20026;-82
2021/09/07 02:36:20;;;;;;;14.07;10.20;;;;;;;21.62;53.22;102494.38;4935774;28;20014;-81
2021/09/07 02:38:46;;;;;;;11.43;9.80;;;;;;;21.61;53.43;102497.88;4964237;28;20034;-81
2021/09/07 02:41:11;;;;;;;12.43;10.50;;;;;;;21.61;53.42;102492.63;4965133;28;20074;-82
2021/09/07 02:43:38;;;;;;;11.35;10.15;;;;;;;21.61;53.60;102490.88;4936854;29;20094;-82
2021/09/07 02:46:05;;;;;;;12.73;10.93;;;;;;;21.61;53.58;102496.13;4947708;28;20094;-82
2021/09/07 02:48:30;;;;;;;13.02;10.02;;;;;;;21.60;53.55;102496.09;4952353;28;20027;-82
2021/09/07 02:50:56;;;;;;;11.43;9.73;;;;;;;21.60;53.59;102488.25;4964913;28;20031;-82
2021/09/07 02:53:25;;;;;;;11.05;9.80;;;;;;;21.59;53.22;102487.38;4980284;28;20035;-80
2021/09/07 02:55:51;;;;;;;11.52;10.18;;;;;;;21.59;53.38;102483.91;4965155;29;20091;-81
2021/09/07 02:58:17;;;;;;;12.23;9.57;;;;;;;21.58;53.31;102480.41;4965432;28;20050;-82
2021/09/07 03:00:43;;;;;;;11.63;10.20;;;;;;;21.58;53.23;102483.03;4981885;28;20043;-81
2021/09/07 03:03:09;;;;;;;11.57;10.40;;;;;;;21.57;53.34;102487.38;4966034;28;20046;-82
2021/09/07 03:05:37;;;;;;;11.23;9.40;;;;;;;21.56;53.41;102483.03;4965622;28;20031;-82
2021/09/07 03:08:03;;;;;;;12.23;10.20;;;;;;;21.56;53.23;102475.16;4965867;29;20007;-81
2021/09/07 03:10:29;;;;;;;11.45;9.40;;;;;;;21.55;53.50;102475.16;4949916;29;20043;-81
2021/09/07 03:12:55;;;;;;;11.23;9.82;;;;;;;21.54;53.22;102479.53;4981829;28;20031;-81
2021/09/07 03:15:24;;;;;;;12.30;10.38;;;;;;;21.56;53.31;102477.78;4984476;28;20007;-81
2021/09/07 03:17:50;;;;;;;10.63;9.50;;;;;;;21.56;53.35;102490.03;4971590;29;20030;-81
2021/09/07 03:20:16;;;;;;;12.43;10.55;;;;;;;21.53;53.34;102475.16;4964809;28;20094;-81
2021/09/07 03:22:42;;;;;;;11.63;9.27;;;;;;;21.56;53.19;102476.94;4964435;29;20030;-81
2021/09/07 03:25:08;;;;;;;12.77;10.43;;;;;;;21.54;53.29;102479.53;4964637;29;20059;-81
2021/09/07 03:27:33;;;;;;;13.40;10.02;;;;;;;21.54;53.28;102476.91;4964388;29;20043;-82
2021/09/07 03:29:59;;;;;;;11.18;10.00;;;;;;;21.53;53.20;102487.38;4963667;29;20013;-81
2021/09/07 03:32:25;;;;;;;11.90;10.65;;;;;;;21.53;53.18;102485.63;4963932;29;20124;-81
2021/09/07 03:34:54;;;;;;;11.32;9.93;;;;;;;21.51;53.20;102487.41;4964394;28;20015;-82
2021/09/07 03:37:20;;;;;;;12.27;9.55;;;;;;;21.53;53.33;102483.00;4964382;29;20031;-82
2021/09/07 03:39:48;;;;;;;13.82;10.23;;;;;;;21.53;53.03;102485.63;4993656;28;20058;-82
2021/09/07 03:42:13;;;;;;;11.95;10.57;;;;;;;21.53;53.06;102477.78;4982247;28;20034;-82
2021/09/07 03:44:39;;;;;;;11.50;9.65;;;;;;;21.52;53.17;102477.78;4982654;28;20017;-83
2021/09/07 03:47:04;;;;;;;12.65;10.43;;;;;;;21.53;53.21;102480.38;4981934;28;20023;-83
2021/09/07 03:49:30;;;;;;;10.88;9.45;;;;;;;21.52;53.06;102475.19;4982375;28;20027;-82
2021/09/07 03:51:56;;;;;;;11.25;10.05;;;;;;;21.52;53.20;102476.03;4982198;28;20014;-82
2021/09/07 03:54:21;;;;;;;11.52;10.32;;;;;;;21.52;53.41;102469.94;4982788;28;20031;-82
2021/09/07 03:56:47;;;;;;;11.45;10.00;;;;;;;21.51;53.31;102470.78;4981821;28;20042;-82
2021/09/07 03:59:13;;;;;;;11.57;10.18;;;;;;;21.52;53.45;102473.41;4981556;28;20026;-82
2021/09/07 04:01:38;;;;;;;13.10;10.32;;;;;;;21.51;53.21;102465.56;4980779;28;20097;-82
2021/09/07 04:04:04;;;;;;;11.82;10.07;;;;;;;;;;4997995;28;20030;-81
2021/09/07 04:06:30;;;;;;;11.55;9.95;;;;;;;21.50;53.08;102469.94;4981210;28;20037;-82
2021/09/07 04:08:59;;;;;;;13.57;10.02;;;;;;;21.51;53.21;102463.84;4974277;29;20087;-81
2021/09/07 04:11:27;;;;;;;11.40;10.20;;;;;;;21.52;53.32;102465.56;4962026;29;20015;-82
2021/09/07 04:13:53;;;;;;;11.85;10.40;;;;;;;21.51;53.29;102469.06;4946543;29;20015;-82
2021/09/07 04:16:19;;;;;;;11.40;10.10;;;;;;;21.51;53.42;102466.44;4961918;29;20024;-81
2021/09/07 04:18:52;;;;;;;12.38;10.57;;;;;;;21.52;53.36;102459.47;4960539;29;20019;-81
2021/09/07 04:21:20;;;;;;;11.13;9.38;;;;;;;21.50;53.35;102458.59;4944810;29;20038;-81
2021/09/07 04:23:48;;;;;;;11.73;10.32;;;;;;;21.50;53.31;102463.81;4944662;29;20059;-81
2021/09/07 04:26:14;;;;;;;13.18;10.57;;;;;;;21.52;53.28;102469.94;4974728;28;20035;-78
2021/09/07 04:28:39;;;;;;;11.95;10.60;;;;;;;21.54;53.19;102476.06;4961068;28;20038;-77
2021/09/07 04:31:04;;;;;;;12.25;10.95;;;;;;;21.57;52.82;102473.41;4941961;29;20040;-76
2021/09/07 04:33:30;;;;;;;13.27;10.88;;;;;;;21.57;53.16;102470.78;4926251;29;20043;-76
2021/09/07 04:35:57;;;;;;;12.15;10.68;;;;;;;21.58;53.11;102475.19;4942651;29;20030;-77
2021/09/07 04:38:23;;;;;;;12.73;10.60;;;;;;;21.59;53.25;102473.44;4927174;29;20046;-76
2021/09/07 04:40:48;;;;;;;12.00;10.20;;;;;;;21.60;53.12;102475.16;4927505;29;20079;-77
2021/09/07 04:43:13;;;;;;;11.80;9.88;;;;;;;21.59;53.07;102468.19;4925519;29;20027;-77
2021/09/07 04:45:39;;;;;;;12.63;10.48;;;;;;;21.60;53.10;102467.28;4926824;29;20442;-77
2021/09/07 04:48:04;;;;;;;11.45;9.75;;;;;;;21.60;52.99;102470.81;4911453;29;20082;-77
2021/09/07 04:50:30;;;;;;;13.63;10.93;;;;;;;21.61;53.17;102474.31;4942952;29;20032;-77
2021/09/07 04:52:55;;;;;;;11.85;10.32;;;;;;;21.60;53.22;102468.19;4911849;29;20033;-77
2021/09/07 04:55:20;;;;;;;12.32;10.40;;;;;;;21.61;53.23;102471.69;4942956;29;20065;-77
2021/09/07 04:57:46;;;;;;;14.52;10.73;;;;;;;21.61;53.30;102480.41;4946736;28;20039;-77
2021/09/07 05:00:12;;;;;;;11.75;10.35;;;;;;;21.61;53.21;102477.78;4942316;29;20046;-77
2021/09/07 05:02:38;;;;;;;11.25;9.60;;;;;;;21.64;53.12;102476.91;4935209;29;20031;-81
2021/09/07 05:05:07;;;;;;;11.80;10.30;;;;;;;21.55;53.16;102469.91;4948687;28;20038;-80
2021/09/07 05:07:33;;;;;;;11.18;10.02;;;;;;;21.54;53.17;102473.44;4950498;29;20078;-79
2021/09/07 05:09:58;;;;;;;13.68;10.48;;;;;;;21.51;53.31;102471.69;4967464;28;20034;-78
2021/09/07 05:12:26;;;;;;;16.83;10.07;;;;;;;21.47;53.56;102467.31;4962696;28;20077;-78
2021/09/07 05:14:52;;;;;;;17.88;11.00;;;;;;;21.46;53.48;102473.41;4946074;28;20035;-78
2021/09/07 05:17:17;;;;;;;17.98;11.15;;;;;;;21.46;53.41;102478.66;4945000;28;20049;-78
2021/09/07 05:19:42;;;;;;;21.55;12.93;;;;;;;21.47;53.27;102480.41;4929839;28;20093;-77
2021/09/07 05:22:08;;;;;;;17.92;12.68;;;;;;;21.52;53.26;102483.91;4945150;28;20058;-77
2021/09/07 05:24:33;;;;;;;26.40;13.60;;;;;;;21.55;53.05;102472.53;4961354;28;20544;-80
2021/09/07 05:26:58;;;;;;;36.90;16.42;;;;;;;21.59;53.37;102483.91;4962901;28;20022;-77
2021/09/07 05:29:24;;;;;;;37.08;15.98;;;;;;;21.58;53.25;102483.03;4948624;28;20052;-78
2021/09/07 05:31:49;;;;;;;36.45;15.50;;;;;;;21.58;53.18;102480.41;4932512;28;20031;-79
2021/09/07 05:34:17;;;;;;;33.47;15.27;;;;;;;21.61;53.25;102485.63;4967208;28;20034;-79
2021/09/07 05:36:42;;;;;;;29.38;14.70;;;;;;;21.62;52.97;102489.13;4948478;28;20061;-78
2021/09/07 05:39:08;;;;;;;41.10;14.15;;;;;;;21.62;53.14;102490.00;4965459;28;20018;-78
2021/09/07 05:41:44;;;;;;;27.40;12.90;;;;;;;21.63;53.15;102490.88;4965755;28;20023;-78
2021/09/07 05:44:15;;;;;;;23.92;12.15;;;;;;;21.64;53.36;102487.38;4964948;28;20368;-78
2021/09/07 05:46:40;;;;;;;22.00;12.88;;;;;;;21.63;53.29;102497.00;4962036;28;20037;-78
2021/09/07 05:49:06;;;;;;;20.73;12.60;;;;;;;21.63;53.42;102498.75;4944671;28;20110;-78
2021/09/07 05:51:31;;;;;;;23.27;12.38;;;;;;;21.63;53.20;102501.38;4960872;28;20081;-78
2021/09/07 05:53:56;;;;;;;23.10;11.68;;;;;;;21.63;53.08;102504.00;4945532;28;20444;-78
2021/09/07 05:56:22;;;;;;;18.45;11.98;;;;;;;21.63;53.37;102509.22;4947321;28;20050;-78
2021/09/07 05:58:48;;;;;;;17.67;12.15;;;;;;;21.63;53.46;102504.84;4945437;28;20023;-78
2021/09/07 06:01:13;;;;;;;17.40;11.35;;;;;;;21.63;53.52;102509.22;4929005;28;20037;-78
2021/09/07 06:03:38;;;;;;;16.50;12.15;;;;;;;21.62;53.42;102510.94;4961216;28;20035;-78
2021/09/07 06:06:04;;;;;;;16.83;11.60;;;;;;;21.63;53.45;102506.59;4962542;28;20035;-79
2021/09/07 06:08:32;;;;;;;18.52;12.35;;;;;;;21.61;53.12;102503.97;4979816;28;20034;-79
2021/09/07 06:10:58;;;;;;;17.60;12.75;;;;;;;21.62;53.36;102507.47;4931127;28;20042;-78
2021/09/07 06:13:23;;;;;;;18.85;12.25;;;;;;;21.61;53.16;102506.59;4964539;28;20019;-79
2021/09/07 06:15:49;;;;;;;17.95;12.43;;;;;;;21.62;53.01;102508.34;4933023;28;20058;-79
2021/09/07 06:18:14;;;;;;;21.63;14.45;;;;;;;21.61;53.08;102509.22;4945744;28;20031;-79
2021/09/07 06:20:40;;;;;;;23.77;18.20;;;;;;;21.52;52.41;102501.38;4961292;28;20027;-79
2021/09/07 06:23:05;;;;;;;27.83;20.67;;;;;;;21.42;52.29;102499.59;4943990;28;20037;-79
2021/09/07 06:25:31;;;;;;;27.02;21.63;;;;;;;21.39;51.98;102499.59;4931306;28;20477;-79
2021/09/07 06:27:56;;;;;;;28.83;20.83;;;;;;;21.34;52.26;102502.19;4949541;28;20027;-79
2021/09/07 06:30:21;;;;;;;27.52;21.85;;;;;;;21.33;52.15;102492.59;4948302;28;20061;-79
2021/09/07 06:32:47;;;;;;;27.73;21.92;;;;;;;21.29;52.26;102496.06;4964485;28;20035;-79
2021/09/07 06:35:12;;;;;;;32.15;23.08;;;;;;;21.28;52.08;102495.19;4948645;28;20042;-79
2021/09/07 06:37:38;;;;;;;29.60;23.02;;;;;;;21.27;52.23;102484.72;4963569;28;20041;-78
2021/09/07 06:40:06;;;;;;;29.13;21.80;;;;;;;21.25;52.22;102500.44;4963115;28;20066;-77
2021/09/07 06:42:31;;;;;;;30.17;22.55;;;;;;;21.29;52.05;102499.56;4961910;28;20172;-80
2021/09/07 06:44:56;;;;;;;28.67;21.77;;;;;;;21.30;52.20;102492.59;4945583;28;20493;-78
2021/09/07 06:47:22;;;;;;;33.67;24.08;;;;;;;21.31;52.09;102494.31;4945220;28;20027;-79
2021/09/07 06:49:47;;;;;;;32.67;23.15;;;;;;;21.31;51.96;102487.34;4945090;28;20118;-79
2021/09/07 06:52:13;;;;;;;34.53;22.90;;;;;;;21.34;52.38;102494.34;4929414;28;20113;-79
2021/09/07 06:54:38;;;;;;;31.55;22.63;;;;;;;21.35;52.01;102488.22;4962039;28;20022;-78
2021/09/07 06:57:04;;;;;;;32.13;23.33;;;;;;;21.35;52.21;102491.72;4946196;28;20026;-78
2021/09/07 06:59:30;;;;;;;37.85;23.95;;;;;;;21.36;51.97;102493.47;4946498;28;20027;-78
2021/09/07 07:01:55;;;;;;;29.48;23.33;;;;;;;21.35;52.21;102489.09;4980570;28;20513;-78
2021/09/07 07:04:20;;;;;;;31.08;23.27;;;;;;;21.34;52.46;102489.09;4967929;28;20385;-79
2021/09/07 07:06:46;;;;;;;32.10;23.63;;;;;;;21.35;52.29;102496.06;4959101;28;20035;-79
2021/09/07 07:09:11;;;;;;;32.90;23.23;;;;;;;21.41;52.63;102495.22;4959430;28;20037;-79
2021/09/07 07:11:37;;;;;;;37.00;24.05;;;;;;;21.35;52.53;102496.94;4953609;28;20035;-79
2021/09/07 07:14:02;;;;;;;32.88;24.17;;;;;;;21.37;52.43;102500.44;4937019;28;20023;-79
2021/09/07 07:16:28;;;;;;;34.90;24.35;;;;;;;21.33;52.53;102503.06;4971066;28;20031;-78
2021/09/07 07:18:53;;;;;;;37.88;25.33;;;;;;;21.32;52.60;102494.34;4966137;28;20171;-79
2021/09/07 07:21:18;;;;;;;32.00;23.08;;;;;;;21.39;52.17;102499.59;4949777;28;20038;-78
2021/09/07 07:23:47;;;;;;;33.60;23.40;;;;;;;21.39;52.08;102510.94;4933304;28;20030;-77
2021/09/07 07:26:12;;;;;;;33.75;23.17;;;;;;;21.39;52.22;102510.94;4949236;28;20023;-79
2021/09/07 07:28:37;;;;;;;35.05;23.75;;;;;;;21.38;51.88;102517.03;4948568;28;20173;-77
2021/09/07 07:31:03;;;;;;;30.60;22.27;;;;;;;21.38;51.70;102506.53;4931840;28;20117;-79
2021/09/07 07:33:28;;;;;;;35.63;22.08;;;;;;;21.41;51.56;102506.59;4947639;28;20027;-78
2021/09/07 07:35:54;;;;;;;31.55;22.00;;;;;;;21.44;51.81;102503.97;4946363;28;20384;-79
2021/09/07 07:38:19;;;;;;;32.65;22.23;;;;;;;21.45;51.40;102510.06;4931097;28;20061;-78
2021/09/07 07:40:45;;;;;;;29.20;21.15;;;;;;;21.44;51.38;102514.44;4930903;28;20110;-78
2021/09/07 07:43:10;;;;;;;35.50;21.70;;;;;;;21.42;51.43;102513.56;4946790;28;20030;-78
2021/09/07 07:45:36;;;;;;;30.33;20.95;;;;;;;21.48;51.25;102516.19;4962181;28;20026;-78
2021/09/07 07:48:02;;;;;;;34.00;21.80;;;;;;;21.45;51.36;102517.94;4961623;28;20023;-78
2021/09/07 07:50:29;;;;;;;26.80;20.45;;;;;;;21.46;51.50;102515.31;4945726;28;20034;-78
2021/09/07 07:52:55;;;;;;;31.67;21.58;;;;;;;21.46;51.67;102515.31;4945958;28;20030;-78
2021/09/07 07:55:21;;;;;;;27.90;21.05;;;;;;;21.50;51.49;102517.06;4946419;28;20030;-78
2021/09/07 07:57:46;;;;;;;27.63;20.58;;;;;;;21.53;51.40;102521.44;4945010;28;20031;-78
2021/09/07 08:00:12;;;;;;;26.65;19.33;;;;;;;21.60;51.39;102517.97;4929876;28;20034;-78
2021/09/07 08:02:38;;;;;;;27.90;19.95;;;;;;;21.65;51.20;102520.59;4945083;28;20041;-78
2021/09/07 08:05:04;;;;;;;29.92;19.73;;;;;;;21.67;51.16;102524.94;4944709;28;20030;-78
2021/09/07 08:07:29;;;;;;;27.30;20.10;;;;;;;21.68;51.08;102526.69;4960675;28;20054;-78
2021/09/07 08:09:55;;;;;;;25.83;19.50;;;;;;;21.83;50.77;102517.06;4929608;28;20037;-79
2021/09/07 08:12:22;;;;;;;23.20;18.48;;;;;;;21.86;50.87;102524.94;4929155;28;20058;-78
2021/09/07 08:14:47;;;;;;;23.48;17.25;;;;;;;21.90;50.69;102527.53;4944517;28;20031;-78
2021/09/07 08:17:14;;;;;;;25.30;16.90;;;;;;;21.97;50.53;102529.31;4929048;28;20122;-78
2021/09/07 08:19:39;;;;;;;21.77;15.90;;;;;;;22.04;50.19;102527.53;4960911;28;20034;-78
2021/09/07 08:22:05;;;;;;;22.60;15.98;;;;;;;22.07;49.95;102529.28;4960734;28;20544;-79
2021/09/07 08:24:30;;;;;;;21.08;15.43;;;;;;;22.10;49.88;102529.25;4961025;28;20065;-78
2021/09/07 08:26:55;;;;;;;21.92;15.85;;;;;;;22.07;50.06;102530.16;4943908;28;20378;-78
2021/09/07 08:29:21;;;;;;;20.88;16.20;;;;;;;22.03;50.05;102536.25;4928145;28;20066;-78
2021/09/07 08:31:46;;;;;;;21.55;16.05;;;;;;;22.01;49.92;102530.16;4928179;28;20507;-78
2021/09/07 08:34:12;;;;;;;17.77;14.60;;;;;;;22.07;49.59;102529.28;4927955;28;20108;-78
2021/09/07 08:36:37;;;;;;;19.60;14.82;;;;;;;22.10;49.60;102522.28;4927783;28;20050;-78
2021/09/07 08:39:04;;;;;;;21.75;14.75;;;;;;;22.13;49.52;102521.41;4943582;28;20046;-78
2021/09/07 08:41:30;;;;;;;21.42;14.23;;;;;;;22.12;49.46;102522.25;4959139;28;20054;-78
2021/09/07 08:43:55;;;;;;;18.80;14.27;;;;;;;22.10;49.57;102524.91;4959441;28;20031;-78
2021/09/07 08:46:21;;;;;;;19.05;13.85;;;;;;;22.09;49.63;102525.78;4927661;28;20109;-78
2021/09/07 08:48:48;;;;;;;19.50;14.98;;;;;;;22.09;49.16;102520.53;4943044;28;20447;-78
2021/09/07 08:51:18;;;;;;;19.30;13.48;;;;;;;22.10;49.50;102522.28;4943386;28;20600;-77
2021/09/07 08:53:44;;;;;;;15.70;13.32;;;;;;;22.09;49.26;102517.91;4960295;28;20058;-78
2021/09/07 08:56:10;;;;;;;19.48;13.85;;;;;;;22.07;49.62;102521.41;4944237;28;20054;-78
2021/09/07 08:58:36;;;;;;;18.63;12.32;;;;;;;22.08;49.75;102520.53;4960106;28;20421;-77
2021/09/07 09:01:12;;;;;;;17.58;12.18;;;;;;;22.10;49.82;102518.78;4943683;28;20058;-78
2021/09/07 09:03:47;;;;;;;16.80;11.35;;;;;;;22.10;50.07;102524.00;4943794;28;20389;-77
2021/09/07 09:06:22;;;;;;;15.30;11.65;;;;;;;22.13;49.70;102516.16;4960730;28;20094;-78
2021/09/07 09:08:48;;;;;;;13.77;10.40;;;;;;;22.13;49.68;102513.53;4977470;28;20354;-78
2021/09/07 09:11:13;;;;;;;15.40;10.93;;;;;;;22.15;49.96;102511.78;4960208;28;20038;-78
2021/09/07 09:13:45;;;;;;;14.65;10.38;;;;;;;22.17;50.01;102516.16;4928411;28;20030;-78
2021/09/07 09:16:12;;;;;;;12.02;10.00;;;;;;;22.19;50.05;102513.53;4960282;28;20022;-78
2021/09/07 09:18:40;;;;;;;13.43;10.40;;;;;;;22.18;50.22;102512.63;4977878;28;20031;-78
2021/09/07 09:21:28;;;;;;;16.27;10.30;;;;;;;22.17;50.06;102518.78;4977739;28;20037;-78
2021/09/07 09:24:12;;;;;;;11.25;9.88;;;;;;;22.13;50.32;102524.91;4976812;28;20480;-78
2021/09/07 09:26:54;;;;;;;10.88;9.10;;;;;;;22.16;50.18;102518.78;4977136;28;20030;-77
2021/09/07 09:29:29;;;;;;;12.43;9.88;;;;;;;22.17;50.06;102524.00;4960042;28;20066;-78
2021/09/07 09:31:59;;;;;;;14.13;10.02;;;;;;;22.19;50.33;102527.50;4960124;28;20046;-78
2021/09/07 09:34:26;;;;;;;11.50;9.43;;;;;;;22.19;50.13;102524.88;4961053;28;20069;-78
2021/09/07 09:37:09;;;;;;;12.82;9.82;;;;;;;22.18;50.37;102525.75;4979592;28;20031;-78
2021/09/07 09:39:47;;;;;;;11.25;9.35;;;;;;;22.17;50.49;102521.41;4946689;28;20051;-79
2021/09/07 09:42:14;;;;;;;12.57;9.20;;;;;;;22.16;50.32;102516.16;4962134;28;20094;-78
2021/09/07 09:44:39;;;;;;;11.27;9.75;;;;;;;22.14;50.69;102521.38;4961661;28;20023;-79
2021/09/07 09:47:05;;;;;;;10.32;8.95;;;;;;;22.13;50.56;102522.28;4947215;28;20019;-79
2021/09/07 09:49:32;;;;;;;11.25;8.60;;;;;;;22.13;50.46;102521.41;4959949;28;20041;-79
2021/09/07 09:52:08;;;;;;;10.02;8.93;;;;;;;22.12;50.61;102522.25;4976056;28;20089;-79
2021/09/07 09:54:36;;;;;;;10.70;9.27;;;;;;;22.12;50.39;102523.16;4976674;28;20033;-78
2021/09/07 09:57:04;;;;;;;10.00;8.95;;;;;;;22.12;50.65;102517.91;4975621;28;20033;-78
2021/09/07 09:59:30;;;;;;;10.38;8.95;;;;;;;22.12;50.72;102512.69;4977062;28;20489;-78
2021/09/07 10:01:57;;;;;;;10.95;9.05;;;;;;;22.11;50.59;102508.28;4946544;28;20073;-78
2021/09/07 10:04:23;;;;;;;12.60;9.02;;;;;;;22.11;50.65;102512.66;4980832;28;20425;-78
2021/09/07 10:06:51;;;;;;;10.93;9.02;;;;;;;22.10;50.79;102508.28;4948187;28;20477;-79
2021/09/07 10:09:23;;;;;;;9.60;8.48;;;;;;;22.09;50.87;102510.03;4963856;28;20027;-79
2021/09/07 10:11:56;;;;;;;10.82;8.77;;;;;;;22.10;51.07;102503.03;4981680;28;20031;-78
2021/09/07 10:14:24;;;;;;;;;;;;;;;22.11;50.49;102502.19;4964061;28;20026;-78
2021/09/07 10:16:56;;;;;;;12.15;9.15;;;;;;;22.12;50.50;102503.91;4963138;28;19997;-79
2021/09/07 10:19:47;;;;;;;9.95;8.02;;;;;;;22.12;50.72;102509.16;4980430;28;20073;-78
2021/09/07 10:26:01;;;;;;;9.98;8.15;;;;;;;22.13;51.00;102505.69;4979856;28;20042;-78
2021/09/07 10:28:40;;;;;;;9.57;8.57;;;;;;;22.13;50.74;102503.91;4901143;29;20024;-78
2021/09/07 10:31:07;;;;;;;10.68;8.45;;;;;;;22.13;51.05;102500.44;4953987;28;20058;-79
2021/09/07 10:33:43;;;;;;;9.70;8.10;;;;;;;22.12;50.71;102493.44;4979731;28;20030;-78
2021/09/07 10:36:17;;;;;;;8.77;7.88;;;;;;;22.13;50.75;102497.81;4964036;28;20062;-79
2021/09/07 10:38:44;;;;;;;10.20;8.55;;;;;;;22.13;50.74;102493.44;4966592;28;20019;-78
2021/09/07 10:41:10;;;;;;;10.55;8.02;;;;;;;22.13;50.72;102480.31;4984138;28;20523;-78
2021/09/07 10:44:01;;;;;;;9.52;8.52;;;;;;;22.13;50.79;102488.19;4950092;28;20161;-78
2021/09/07 10:46:45;;;;;;;11.32;8.02;;;;;;;22.14;50.78;102489.91;4982634;28;20023;-78
2021/09/07 10:49:15;;;;;;;9.05;8.00;;;;;;;22.15;50.58;102485.56;4983796;28;20496;-78
2021/09/07 10:52:14;;;;;;;9.43;8.23;;;;;;;22.15;50.83;102488.19;4951062;28;20050;-78
2021/09/07 10:54:46;;;;;;;10.82;8.85;;;;;;;22.14;50.75;102483.81;4965987;28;20073;-78
2021/09/07 10:57:36;;;;;;;9.05;8.15;;;;;;;22.16;50.68;102480.31;4985014;28;20381;-78
2021/09/07 11:00:21;;;;;;;9.02;7.70;;;;;;;22.17;50.56;102478.56;4966859;28;20031;-78
2021/09/07 11:02:53;;;;;;;10.35;8.48;;;;;;;22.17;50.89;102478.56;4966625;28;20109;-78
2021/09/07 11:05:41;;;;;;;9.20;7.97;;;;;;;22.16;50.84;102477.69;4967128;28;20026;-79
2021/09/07 11:08:32;;;;;;;10.70;7.85;;;;;;;22.17;50.66;102470.72;4965213;28;20022;-79
2021/09/07 11:10:58;;;;;;;9.38;8.35;;;;;;;22.17;50.80;102473.34;4982017;28;20030;-79
2021/09/07 11:13:29;;;;;;;11.73;9.20;;;;;;;22.17;50.50;102468.09;4964938;28;20038;-79
2021/09/07 11:16:02;;;;;;;9.45;7.93;;;;;;;22.18;50.71;102469.81;4963840;28;20034;-79
2021/09/07 11:18:33;;;;;;;9.38;8.48;;;;;;;22.19;50.50;102466.34;4964550;28;20105;-79